sensor_id;sensor_type;location;lat;lon;timestamp;P1;durP1;ratioP1;P2;durP2;ratioP2
1122;SDS011;548;48.778;9.252;2023-04-25T00:00:19;10.90;;;10.50;;
1122;SDS011;548;48.778;9.252;2023-04-25T00:02:47;10.40;;;9.90;;
1122;SDS011;548;48.778;9.252;2023-04-25T00:05:14;10.83;;;10.33;;
1122;SDS011;548;48.778;9.252;2023-04-25T00:07:41;10.60;;;10.20;;
1122;SDS011;548;48.778;9.252;2023-04-25T00:10:08;11.67;;;11.07;;
1122;SDS011;548;48.778;9.252;2023-04-25T00:12:36;12.50;;;12.00;;
1122;SDS011;548;48.778;9.252;2023-04-25T00:15:02;12.90;;;12.40;;
1122;SDS011;548;48.778;9.252;2023-04-25T00:17:30;12.60;;;11.83;;
1122;SDS011;548;48.778;9.252;2023-04-25T00:19:58;12.10;;;11.57;;
1122;SDS011;548;48.778;9.252;2023-04-25T00:22:24;12.23;;;11.73;;
1122;SDS011;548;48.778;9.252;2023-04-25T00:24:51;12.27;;;11.77;;
1122;SDS011;548;48.778;9.252;2023-04-25T00:27:21;12.43;;;11.83;;
1122;SDS011;548;48.778;9.252;2023-04-25T00:29:48;10.50;;;10.10;;
1122;SDS011;548;48.778;9.252;2023-04-25T00:32:14;12.80;;;12.20;;
1122;SDS011;548;48.778;9.252;2023-04-25T00:34:41;12.50;;;11.80;;
1122;SDS011;548;48.778;9.252;2023-04-25T00:37:09;11.73;;;11.23;;
1122;SDS011;548;48.778;9.252;2023-04-25T00:39:36;10.90;;;10.50;;
1122;SDS011;548;48.778;9.252;2023-04-25T00:42:03;12.87;;;12.27;;
1122;SDS011;548;48.778;9.252;2023-04-25T00:44:31;12.47;;;12.07;;
1122;SDS011;548;48.778;9.252;2023-04-25T00:46:58;12.70;;;12.20;;
1122;SDS011;548;48.778;9.252;2023-04-25T00:49:26;12.90;;;12.30;;
1122;SDS011;548;48.778;9.252;2023-04-25T00:51:53;12.60;;;11.80;;
1122;SDS011;548;48.778;9.252;2023-04-25T00:54:22;13.07;;;12.60;;
1122;SDS011;548;48.778;9.252;2023-04-25T00:56:49;13.10;;;12.60;;
1122;SDS011;548;48.778;9.252;2023-04-25T00:59:16;14.77;;;13.70;;
1122;SDS011;548;48.778;9.252;2023-04-25T01:01:44;13.40;;;12.57;;
1122;SDS011;548;48.778;9.252;2023-04-25T01:04:11;14.93;;;14.30;;
1122;SDS011;548;48.778;9.252;2023-04-25T01:06:39;15.00;;;14.30;;
1122;SDS011;548;48.778;9.252;2023-04-25T01:09:06;13.23;;;12.73;;
1122;SDS011;548;48.778;9.252;2023-04-25T01:14:02;15.40;;;14.70;;
1122;SDS011;548;48.778;9.252;2023-04-25T01:16:29;14.67;;;14.07;;
1122;SDS011;548;48.778;9.252;2023-04-25T01:18:56;14.70;;;14.07;;
1122;SDS011;548;48.778;9.252;2023-04-25T01:21:24;13.10;;;12.50;;
1122;SDS011;548;48.778;9.252;2023-04-25T01:23:52;14.03;;;13.47;;
1122;SDS011;548;48.778;9.252;2023-04-25T01:26:20;13.43;;;12.93;;
1122;SDS011;548;48.778;9.252;2023-04-25T01:28:48;13.50;;;12.90;;
1122;SDS011;548;48.778;9.252;2023-04-25T01:31:15;14.07;;;13.47;;
1122;SDS011;548;48.778;9.252;2023-04-25T01:33:43;18.90;;;18.20;;
1122;SDS011;548;48.778;9.252;2023-04-25T01:36:10;22.40;;;21.20;;
1122;SDS011;548;48.778;9.252;2023-04-25T01:38:39;21.80;;;20.90;;
1122;SDS011;548;48.778;9.252;2023-04-25T01:41:06;21.43;;;20.53;;
1122;SDS011;548;48.778;9.252;2023-04-25T01:43:33;22.37;;;21.33;;
1122;SDS011;548;48.778;9.252;2023-04-25T01:46:00;21.00;;;20.20;;
1122;SDS011;548;48.778;9.252;2023-04-25T01:48:27;21.30;;;20.40;;
1122;SDS011;548;48.778;9.252;2023-04-25T01:50:53;24.10;;;22.60;;
1122;SDS011;548;48.778;9.252;2023-04-25T01:53:20;23.27;;;21.60;;
1122;SDS011;548;48.778;9.252;2023-04-25T01:55:49;20.10;;;19.30;;
1122;SDS011;548;48.778;9.252;2023-04-25T01:58:15;21.23;;;20.30;;
1122;SDS011;548;48.778;9.252;2023-04-25T02:00:42;21.80;;;20.90;;
1122;SDS011;548;48.778;9.252;2023-04-25T02:03:09;21.50;;;20.50;;
1122;SDS011;548;48.778;9.252;2023-04-25T02:05:36;22.83;;;21.73;;
1122;SDS011;548;48.778;9.252;2023-04-25T02:08:04;20.97;;;20.07;;
1122;SDS011;548;48.778;9.252;2023-04-25T02:10:32;20.70;;;19.80;;
1122;SDS011;548;48.778;9.252;2023-04-25T02:13:00;23.20;;;22.00;;
1122;SDS011;548;48.778;9.252;2023-04-25T02:15:27;21.50;;;20.40;;
1122;SDS011;548;48.778;9.252;2023-04-25T02:17:54;23.23;;;22.03;;
1122;SDS011;548;48.778;9.252;2023-04-25T02:20:21;20.10;;;19.23;;
1122;SDS011;548;48.778;9.252;2023-04-25T02:22:49;19.07;;;18.17;;
1122;SDS011;548;48.778;9.252;2023-04-25T02:25:16;18.40;;;17.40;;
1122;SDS011;548;48.778;9.252;2023-04-25T02:27:43;17.70;;;16.90;;
1122;SDS011;548;48.778;9.252;2023-04-25T02:30:12;17.23;;;16.40;;
1122;SDS011;548;48.778;9.252;2023-04-25T02:32:39;17.77;;;16.87;;
1122;SDS011;548;48.778;9.252;2023-04-25T02:35:06;18.17;;;17.47;;
1122;SDS011;548;48.778;9.252;2023-04-25T02:37:34;16.80;;;16.20;;
1122;SDS011;548;48.778;9.252;2023-04-25T02:40:02;16.93;;;15.97;;
1122;SDS011;548;48.778;9.252;2023-04-25T02:42:29;15.93;;;15.30;;
1122;SDS011;548;48.778;9.252;2023-04-25T02:44:56;14.70;;;14.10;;
1122;SDS011;548;48.778;9.252;2023-04-25T02:47:24;14.90;;;14.17;;
1122;SDS011;548;48.778;9.252;2023-04-25T02:49:51;14.80;;;14.07;;
1122;SDS011;548;48.778;9.252;2023-04-25T02:52:18;13.47;;;12.97;;
1122;SDS011;548;48.778;9.252;2023-04-25T02:54:44;12.73;;;12.23;;
1122;SDS011;548;48.778;9.252;2023-04-25T02:57:11;13.53;;;13.03;;
1122;SDS011;548;48.778;9.252;2023-04-25T02:59:38;13.07;;;12.57;;
1122;SDS011;548;48.778;9.252;2023-04-25T03:02:04;12.70;;;12.10;;
1122;SDS011;548;48.778;9.252;2023-04-25T03:04:32;13.73;;;13.13;;
1122;SDS011;548;48.778;9.252;2023-04-25T03:06:59;14.00;;;13.50;;
1122;SDS011;548;48.778;9.252;2023-04-25T03:09:26;12.93;;;12.43;;
1122;SDS011;548;48.778;9.252;2023-04-25T03:11:52;13.90;;;13.20;;
1122;SDS011;548;48.778;9.252;2023-04-25T03:14:19;13.43;;;12.83;;
1122;SDS011;548;48.778;9.252;2023-04-25T03:16:46;13.63;;;13.03;;
1122;SDS011;548;48.778;9.252;2023-04-25T03:19:12;14.13;;;13.57;;
1122;SDS011;548;48.778;9.252;2023-04-25T03:21:42;14.87;;;14.20;;
1122;SDS011;548;48.778;9.252;2023-04-25T03:24:09;12.87;;;12.43;;
1122;SDS011;548;48.778;9.252;2023-04-25T03:26:36;13.33;;;12.73;;
1122;SDS011;548;48.778;9.252;2023-04-25T03:29:02;14.33;;;13.60;;
1122;SDS011;548;48.778;9.252;2023-04-25T03:31:29;13.57;;;12.77;;
1122;SDS011;548;48.778;9.252;2023-04-25T03:33:56;14.20;;;13.60;;
1122;SDS011;548;48.778;9.252;2023-04-25T03:36:23;14.27;;;13.67;;
1122;SDS011;548;48.778;9.252;2023-04-25T03:38:51;14.23;;;13.53;;
1122;SDS011;548;48.778;9.252;2023-04-25T03:41:17;13.90;;;13.10;;
1122;SDS011;548;48.778;9.252;2023-04-25T03:43:45;14.07;;;13.10;;
1122;SDS011;548;48.778;9.252;2023-04-25T03:46:11;13.37;;;12.87;;
1122;SDS011;548;48.778;9.252;2023-04-25T03:48:38;14.67;;;13.93;;
1122;SDS011;548;48.778;9.252;2023-04-25T03:51:05;14.97;;;14.27;;
1122;SDS011;548;48.778;9.252;2023-04-25T03:53:31;14.10;;;13.50;;
1122;SDS011;548;48.778;9.252;2023-04-25T03:55:59;14.43;;;13.73;;
1122;SDS011;548;48.778;9.252;2023-04-25T03:58:26;16.47;;;15.43;;
1122;SDS011;548;48.778;9.252;2023-04-25T04:00:53;14.73;;;14.03;;
1122;SDS011;548;48.778;9.252;2023-04-25T04:03:20;17.00;;;16.10;;
1122;SDS011;548;48.778;9.252;2023-04-25T04:05:46;13.97;;;13.37;;
1122;SDS011;548;48.778;9.252;2023-04-25T04:08:13;14.90;;;14.30;;
1122;SDS011;548;48.778;9.252;2023-04-25T04:10:40;16.50;;;15.63;;
1122;SDS011;548;48.778;9.252;2023-04-25T04:13:08;16.03;;;15.33;;
1122;SDS011;548;48.778;9.252;2023-04-25T04:15:35;17.50;;;16.70;;
1122;SDS011;548;48.778;9.252;2023-04-25T04:18:02;15.80;;;15.00;;
1122;SDS011;548;48.778;9.252;2023-04-25T04:20:29;15.43;;;14.73;;
1122;SDS011;548;48.778;9.252;2023-04-25T04:22:56;15.50;;;14.90;;
1122;SDS011;548;48.778;9.252;2023-04-25T04:25:22;16.53;;;15.43;;
1122;SDS011;548;48.778;9.252;2023-04-25T04:27:49;15.30;;;14.60;;
1122;SDS011;548;48.778;9.252;2023-04-25T04:30:20;15.53;;;14.83;;
1122;SDS011;548;48.778;9.252;2023-04-25T04:32:48;15.63;;;14.83;;
1122;SDS011;548;48.778;9.252;2023-04-25T04:35:15;17.97;;;16.83;;
1122;SDS011;548;48.778;9.252;2023-04-25T04:37:42;17.23;;;16.23;;
1122;SDS011;548;48.778;9.252;2023-04-25T04:40:19;15.57;;;14.57;;
1122;SDS011;548;48.778;9.252;2023-04-25T04:42:47;16.10;;;15.30;;
1122;SDS011;548;48.778;9.252;2023-04-25T04:45:14;14.93;;;14.33;;
1122;SDS011;548;48.778;9.252;2023-04-25T04:47:43;15.77;;;14.87;;
1122;SDS011;548;48.778;9.252;2023-04-25T04:50:10;15.57;;;14.57;;
1122;SDS011;548;48.778;9.252;2023-04-25T04:52:37;14.90;;;14.20;;
1122;SDS011;548;48.778;9.252;2023-04-25T04:55:05;16.40;;;15.70;;
1122;SDS011;548;48.778;9.252;2023-04-25T04:57:33;15.07;;;14.37;;
1122;SDS011;548;48.778;9.252;2023-04-25T05:00:00;15.03;;;14.20;;
1122;SDS011;548;48.778;9.252;2023-04-25T05:02:27;13.77;;;13.07;;
1122;SDS011;548;48.778;9.252;2023-04-25T05:04:55;14.93;;;14.33;;
1122;SDS011;548;48.778;9.252;2023-04-25T05:07:22;14.23;;;13.20;;
1122;SDS011;548;48.778;9.252;2023-04-25T05:10:08;15.10;;;14.40;;
1122;SDS011;548;48.778;9.252;2023-04-25T05:12:38;14.10;;;13.60;;
1122;SDS011;548;48.778;9.252;2023-04-25T05:15:05;15.50;;;14.57;;
1122;SDS011;548;48.778;9.252;2023-04-25T05:17:33;15.00;;;13.60;;
1122;SDS011;548;48.778;9.252;2023-04-25T05:22:58;14.70;;;13.90;;
1122;SDS011;548;48.778;9.252;2023-04-25T05:25:25;15.30;;;14.50;;
1122;SDS011;548;48.778;9.252;2023-04-25T05:27:52;15.53;;;14.73;;
1122;SDS011;548;48.778;9.252;2023-04-25T05:32:06;13.37;;;12.40;;
1122;SDS011;548;48.778;9.252;2023-04-25T05:34:40;14.50;;;13.70;;
1122;SDS011;548;48.778;9.252;2023-04-25T05:37:14;13.33;;;12.70;;
1122;SDS011;548;48.778;9.252;2023-04-25T05:39:52;14.30;;;13.70;;
1122;SDS011;548;48.778;9.252;2023-04-25T05:42:31;14.90;;;14.30;;
1122;SDS011;548;48.778;9.252;2023-04-25T05:45:03;13.73;;;13.00;;
1122;SDS011;548;48.778;9.252;2023-04-25T05:47:49;15.33;;;14.20;;
1122;SDS011;548;48.778;9.252;2023-04-25T10:26:26;40.10;;;37.90;;
1122;SDS011;548;48.778;9.252;2023-04-25T10:28:54;40.83;;;38.73;;
1122;SDS011;548;48.778;9.252;2023-04-25T10:31:22;38.10;;;36.10;;
1122;SDS011;548;48.778;9.252;2023-04-25T10:33:49;40.40;;;38.50;;
1122;SDS011;548;48.778;9.252;2023-04-25T10:36:18;40.80;;;38.90;;
1122;SDS011;548;48.778;9.252;2023-04-25T10:38:47;37.73;;;35.93;;
1122;SDS011;548;48.778;9.252;2023-04-25T10:41:17;39.97;;;38.03;;
1122;SDS011;548;48.778;9.252;2023-04-25T10:43:46;41.23;;;39.13;;
1122;SDS011;548;48.778;9.252;2023-04-25T10:46:17;40.07;;;37.87;;
1122;SDS011;548;48.778;9.252;2023-04-25T10:48:48;39.60;;;37.60;;
1122;SDS011;548;48.778;9.252;2023-04-25T10:51:16;38.27;;;36.27;;
1122;SDS011;548;48.778;9.252;2023-04-25T10:53:45;39.00;;;36.87;;
1122;SDS011;548;48.778;9.252;2023-04-25T10:56:16;39.63;;;37.60;;
1122;SDS011;548;48.778;9.252;2023-04-25T10:58:46;40.20;;;38.10;;
1122;SDS011;548;48.778;9.252;2023-04-25T11:01:14;44.00;;;41.63;;
1122;SDS011;548;48.778;9.252;2023-04-25T11:03:46;41.87;;;39.43;;
1122;SDS011;548;48.778;9.252;2023-04-25T11:06:18;42.00;;;39.80;;
1122;SDS011;548;48.778;9.252;2023-04-25T11:08:49;38.97;;;36.80;;
1122;SDS011;548;48.778;9.252;2023-04-25T11:11:16;39.20;;;37.20;;
1122;SDS011;548;48.778;9.252;2023-04-25T11:13:44;40.07;;;37.87;;
1122;SDS011;548;48.778;9.252;2023-04-25T11:16:14;39.70;;;37.40;;
1122;SDS011;548;48.778;9.252;2023-04-25T11:18:41;41.13;;;38.83;;
1122;SDS011;548;48.778;9.252;2023-04-25T11:21:08;39.90;;;37.80;;
1122;SDS011;548;48.778;9.252;2023-04-25T11:23:35;39.50;;;37.60;;
1122;SDS011;548;48.778;9.252;2023-04-25T11:26:02;40.33;;;38.20;;
1122;SDS011;548;48.778;9.252;2023-04-25T11:28:29;38.80;;;36.90;;
1122;SDS011;548;48.778;9.252;2023-04-25T11:30:56;40.87;;;38.53;;
1122;SDS011;548;48.778;9.252;2023-04-25T11:33:24;41.10;;;38.60;;
1122;SDS011;548;48.778;9.252;2023-04-25T11:35:53;41.67;;;39.57;;
1122;SDS011;548;48.778;9.252;2023-04-25T11:38:21;39.23;;;37.43;;
1122;SDS011;548;48.778;9.252;2023-04-25T11:40:51;38.10;;;36.20;;
1122;SDS011;548;48.778;9.252;2023-04-25T11:43:19;40.10;;;38.07;;
1122;SDS011;548;48.778;9.252;2023-04-25T11:45:47;43.00;;;40.80;;
1122;SDS011;548;48.778;9.252;2023-04-25T11:48:15;40.53;;;38.73;;
1122;SDS011;548;48.778;9.252;2023-04-25T11:50:43;41.50;;;39.60;;
1122;SDS011;548;48.778;9.252;2023-04-25T11:53:10;39.77;;;37.87;;
1122;SDS011;548;48.778;9.252;2023-04-25T11:55:37;39.40;;;37.50;;
1122;SDS011;548;48.778;9.252;2023-04-25T11:58:05;42.07;;;40.27;;
1122;SDS011;548;48.778;9.252;2023-04-25T12:00:33;41.30;;;39.30;;
1122;SDS011;548;48.778;9.252;2023-04-25T12:03:00;41.33;;;39.13;;
1122;SDS011;548;48.778;9.252;2023-04-25T12:05:28;40.30;;;38.30;;
1122;SDS011;548;48.778;9.252;2023-04-25T12:07:59;39.70;;;37.60;;
1122;SDS011;548;48.778;9.252;2023-04-25T12:10:36;42.63;;;40.40;;
1122;SDS011;548;48.778;9.252;2023-04-25T12:13:17;41.70;;;39.70;;
1122;SDS011;548;48.778;9.252;2023-04-25T12:15:45;43.30;;;41.30;;
1122;SDS011;548;48.778;9.252;2023-04-25T12:18:12;42.03;;;39.77;;
1122;SDS011;548;48.778;9.252;2023-04-25T12:20:38;41.60;;;39.40;;
1122;SDS011;548;48.778;9.252;2023-04-25T12:23:06;42.10;;;40.10;;
1122;SDS011;548;48.778;9.252;2023-04-25T12:25:34;42.80;;;40.30;;
1122;SDS011;548;48.778;9.252;2023-04-25T12:28:11;43.10;;;40.90;;
1122;SDS011;548;48.778;9.252;2023-04-25T12:30:51;40.90;;;38.50;;
1122;SDS011;548;48.778;9.252;2023-04-25T12:33:22;43.73;;;41.23;;
1122;SDS011;548;48.778;9.252;2023-04-25T12:35:49;43.97;;;41.67;;
1122;SDS011;548;48.778;9.252;2023-04-25T12:38:28;43.87;;;41.27;;
1122;SDS011;548;48.778;9.252;2023-04-25T12:40:56;43.60;;;41.40;;
1122;SDS011;548;48.778;9.252;2023-04-25T12:43:23;42.37;;;40.07;;
1122;SDS011;548;48.778;9.252;2023-04-25T12:45:50;44.07;;;41.40;;
1122;SDS011;548;48.778;9.252;2023-04-25T12:48:18;44.77;;;42.27;;
1122;SDS011;548;48.778;9.252;2023-04-25T12:50:45;42.10;;;39.60;;
1122;SDS011;548;48.778;9.252;2023-04-25T12:53:13;45.07;;;42.63;;
1122;SDS011;548;48.778;9.252;2023-04-25T12:55:41;46.40;;;43.90;;
1122;SDS011;548;48.778;9.252;2023-04-25T12:58:10;42.67;;;40.47;;
1122;SDS011;548;48.778;9.252;2023-04-25T13:00:37;42.83;;;40.73;;
1122;SDS011;548;48.778;9.252;2023-04-25T13:03:04;42.97;;;40.47;;
1122;SDS011;548;48.778;9.252;2023-04-25T13:05:31;41.13;;;38.80;;
1122;SDS011;548;48.778;9.252;2023-04-25T13:07:58;39.97;;;38.07;;
1122;SDS011;548;48.778;9.252;2023-04-25T13:10:24;36.40;;;34.80;;
1122;SDS011;548;48.778;9.252;2023-04-25T19:17:28;35.87;;;33.70;;
1122;SDS011;548;48.778;9.252;2023-04-25T19:19:54;35.97;;;33.70;;
1122;SDS011;548;48.778;9.252;2023-04-25T19:22:21;37.27;;;34.87;;
1122;SDS011;548;48.778;9.252;2023-04-25T19:24:48;36.80;;;33.97;;
1122;SDS011;548;48.778;9.252;2023-04-25T19:27:14;38.13;;;35.60;;
1122;SDS011;548;48.778;9.252;2023-04-25T19:29:41;36.07;;;33.83;;
1122;SDS011;548;48.778;9.252;2023-04-25T19:32:12;36.77;;;34.47;;
1122;SDS011;548;48.778;9.252;2023-04-25T19:34:40;34.57;;;32.57;;
1122;SDS011;548;48.778;9.252;2023-04-25T19:37:07;36.83;;;34.60;;
1122;SDS011;548;48.778;9.252;2023-04-25T19:39:33;35.87;;;33.60;;
1122;SDS011;548;48.778;9.252;2023-04-25T19:42:00;37.00;;;34.60;;
1122;SDS011;548;48.778;9.252;2023-04-25T19:44:28;37.70;;;35.20;;
1122;SDS011;548;48.778;9.252;2023-04-25T19:46:54;36.43;;;34.23;;
1122;SDS011;548;48.778;9.252;2023-04-25T19:49:23;40.00;;;37.10;;
1122;SDS011;548;48.778;9.252;2023-04-25T19:51:52;40.97;;;38.07;;
1122;SDS011;548;48.778;9.252;2023-04-25T19:54:19;41.57;;;38.30;;
1122;SDS011;548;48.778;9.252;2023-04-25T19:56:45;37.77;;;35.30;;
1122;SDS011;548;48.778;9.252;2023-04-25T19:59:12;37.33;;;35.20;;
1122;SDS011;548;48.778;9.252;2023-04-25T20:01:39;36.10;;;33.90;;
1122;SDS011;548;48.778;9.252;2023-04-25T20:04:05;36.83;;;34.43;;
1122;SDS011;548;48.778;9.252;2023-04-25T20:06:32;35.87;;;32.93;;
1122;SDS011;548;48.778;9.252;2023-04-25T20:09:00;36.40;;;34.00;;
1122;SDS011;548;48.778;9.252;2023-04-25T20:11:28;35.90;;;33.10;;
1122;SDS011;548;48.778;9.252;2023-04-25T20:13:55;33.43;;;31.50;;
1122;SDS011;548;48.778;9.252;2023-04-25T20:16:21;33.93;;;31.80;;
1122;SDS011;548;48.778;9.252;2023-04-25T20:18:49;34.87;;;32.77;;
1122;SDS011;548;48.778;9.252;2023-04-25T20:21:16;34.30;;;32.10;;
1122;SDS011;548;48.778;9.252;2023-04-25T20:23:44;35.73;;;33.70;;
1122;SDS011;548;48.778;9.252;2023-04-25T20:26:12;36.40;;;34.13;;
1122;SDS011;548;48.778;9.252;2023-04-25T20:28:39;34.80;;;32.70;;
1122;SDS011;548;48.778;9.252;2023-04-25T20:31:06;32.87;;;30.77;;
1122;SDS011;548;48.778;9.252;2023-04-25T20:33:34;33.73;;;31.83;;
1122;SDS011;548;48.778;9.252;2023-04-25T20:36:02;32.97;;;31.03;;
1122;SDS011;548;48.778;9.252;2023-04-25T20:38:29;31.40;;;29.57;;
1122;SDS011;548;48.778;9.252;2023-04-25T20:40:56;31.73;;;29.50;;
1122;SDS011;548;48.778;9.252;2023-04-25T20:43:25;31.40;;;29.10;;
1122;SDS011;548;48.778;9.252;2023-04-25T20:45:51;33.13;;;31.33;;
1122;SDS011;548;48.778;9.252;2023-04-25T20:48:18;31.87;;;29.97;;
1122;SDS011;548;48.778;9.252;2023-04-25T20:50:45;30.67;;;28.83;;
1122;SDS011;548;48.778;9.252;2023-04-25T20:53:12;31.30;;;29.20;;
1122;SDS011;548;48.778;9.252;2023-04-25T20:55:39;32.53;;;30.47;;
1122;SDS011;548;48.778;9.252;2023-04-25T20:58:06;31.13;;;28.87;;
1122;SDS011;548;48.778;9.252;2023-04-25T21:00:34;30.50;;;28.30;;
1122;SDS011;548;48.778;9.252;2023-04-25T21:03:03;29.50;;;27.13;;
1122;SDS011;548;48.778;9.252;2023-04-25T21:05:31;29.60;;;27.63;;
1122;SDS011;548;48.778;9.252;2023-04-25T21:07:57;28.63;;;26.73;;
1122;SDS011;548;48.778;9.252;2023-04-25T21:10:24;27.37;;;25.70;;
1122;SDS011;548;48.778;9.252;2023-04-25T21:12:51;27.60;;;25.70;;
1122;SDS011;548;48.778;9.252;2023-04-25T21:15:19;27.77;;;25.97;;
1122;SDS011;548;48.778;9.252;2023-04-25T21:17:48;29.37;;;27.40;;
1122;SDS011;548;48.778;9.252;2023-04-25T21:20:15;28.07;;;26.37;;
1122;SDS011;548;48.778;9.252;2023-04-25T21:22:43;29.30;;;27.13;;
1122;SDS011;548;48.778;9.252;2023-04-25T21:25:13;26.10;;;24.40;;
1122;SDS011;548;48.778;9.252;2023-04-25T21:27:44;25.80;;;24.10;;
1122;SDS011;548;48.778;9.252;2023-04-25T21:30:11;24.53;;;23.03;;
1122;SDS011;548;48.778;9.252;2023-04-25T21:32:40;25.30;;;23.17;;
1122;SDS011;548;48.778;9.252;2023-04-25T21:35:09;25.00;;;23.00;;
1122;SDS011;548;48.778;9.252;2023-04-25T21:37:35;24.33;;;22.60;;
1122;SDS011;548;48.778;9.252;2023-04-25T21:40:02;23.93;;;22.17;;
1122;SDS011;548;48.778;9.252;2023-04-25T21:42:30;24.53;;;22.50;;
1122;SDS011;548;48.778;9.252;2023-04-25T21:44:56;24.13;;;22.17;;
1122;SDS011;548;48.778;9.252;2023-04-25T21:47:23;22.97;;;21.43;;
1122;SDS011;548;48.778;9.252;2023-04-25T21:49:50;23.60;;;22.00;;
1122;SDS011;548;48.778;9.252;2023-04-25T21:52:18;23.93;;;22.03;;
1122;SDS011;548;48.778;9.252;2023-04-25T21:54:44;23.00;;;21.20;;
1122;SDS011;548;48.778;9.252;2023-04-25T21:57:11;24.43;;;22.40;;
1122;SDS011;548;48.778;9.252;2023-04-25T21:59:38;24.20;;;22.43;;
1122;SDS011;548;48.778;9.252;2023-04-25T22:02:04;25.37;;;23.37;;
1122;SDS011;548;48.778;9.252;2023-04-25T22:04:31;25.20;;;23.23;;
1122;SDS011;548;48.778;9.252;2023-04-25T22:06:58;24.10;;;22.17;;
1122;SDS011;548;48.778;9.252;2023-04-25T22:09:26;25.93;;;24.03;;
1122;SDS011;548;48.778;9.252;2023-04-25T22:11:53;23.93;;;22.13;;
1122;SDS011;548;48.778;9.252;2023-04-25T22:14:20;24.73;;;22.63;;
1122;SDS011;548;48.778;9.252;2023-04-25T22:16:46;24.13;;;21.90;;
1122;SDS011;548;48.778;9.252;2023-04-25T22:19:13;24.93;;;22.90;;
